Flight Track Log - Related Links

Times and Time Zones

All times are in EST time to prevent confusion due to time zone crossing. See the FDX1151 flight status page for this flight to view local times or setup timezone preferences in your user account.

Time Position Orientation Groundspeed Altitude Reporting Facility
EST Latitude Longitude Course Direction KTS MPH feet Rate Location/Type
Fri 04:43:52 AM 33.0108 -97.3256 339° North 144 166 2,200  Level FAA TRACON SMA TRACON (SMA)
Fri 04:44:31 AM 33.0475 -97.3419 300° West 210 242 3,200 1,975 Climbing FAA TRACON SMA TRACON (SMA)
Fri 04:45:11 AM 33.0706 -97.3903 280° West 285 328 4,800 1,350 Climbing FAA TRACON SMA TRACON (SMA)
Fri 04:45:51 AM 33.0806 -97.4569 279° West 293 337 5,000 148 Climbing FAA TRACON SMA TRACON (SMA)
Fri 04:46:32 AM 33.0892 -97.5231 278° West 291 335 5,000  Level FAA TRACON SMA TRACON (SMA)
Fri 04:47:11 AM 33.0961 -97.5819 279° West 293 337 5,000 684 Level FAA TRACON SMA TRACON (SMA)
Fri 04:47:51 AM 33.1050 -97.6478 278° West 292 336 5,900 2,850 Climbing FAA TRACON SMA TRACON (SMA)
Fri 04:48:31 AM 33.1131 -97.7125 287° West 285 328 8,800 3,407 Climbing FAA TRACON SMA TRACON (SMA)
Fri 04:49:12 AM 33.1272 -97.7672 287° West 281 323 10,500 1,575 Climbing FAA TRACON SMA TRACON (SMA)
Fri 04:49:51 AM 33.1458 -97.8419 287° West 350 403 10,900 1,443 Climbing FAA TRACON SMA TRACON (SMA)
Fri 04:50:31 AM 33.1689 -97.9294 288° West 405 466 12,400 2,667 Climbing FAA TRACON SMA TRACON (SMA)
Fri 04:51:12 AM 33.1903 -98.0103 286° West 416 479 14,500 3,000 Climbing FAA TRACON SMA TRACON (SMA)
Fri 04:51:51 AM 33.2136 -98.1047 286° West 431 496 16,400 3,000 Climbing FAA TRACON SMA TRACON (SMA)
Fri 04:53:18 AM 33.2603 -98.3003 286° West 427 491 20,800 2,694 Climbing Fort Worth Center
Fri 04:54:18 AM 33.2906 -98.4275 287° West 438 504 23,000 2,100 Climbing Fort Worth Center
Fri 04:55:18 AM 33.3269 -98.5719 288° West 444 511 25,000 1,750 Climbing Fort Worth Center
Fri 04:56:18 AM 33.3692 -98.7267 285° West 466 536 26,500 2,250 Climbing Fort Worth Center
Fri 04:57:18 AM 33.4050 -98.8842 286° West 479 551 29,500 3,050 Climbing Fort Worth Center
Fri 04:58:18 AM 33.4408 -99.0314 287° West 479 551 32,600 2,250 Climbing Fort Worth Center
Fri 04:59:18 AM 33.4764 -99.1717 286° West 465 535 34,000 700 Climbing Fort Worth Center
Fri 05:00:18 AM 33.5078 -99.3067 286° West 440 506 34,000  Level Fort Worth Center
Fri 05:01:18 AM 33.5411 -99.4447 286° West 429 494 34,000  Level Fort Worth Center
Fri 05:02:18 AM 33.5744 -99.5825 285° West 429 494 34,000  Level Fort Worth Center
Fri 05:03:18 AM 33.6053 -99.7203 287° West 429 494 34,000  Level Fort Worth Center
Fri 05:04:18 AM 33.6403 -99.8586 285° West 429 494 34,000  Level Fort Worth Center
Fri 05:05:18 AM 33.6708 -99.9967 286° West 429 494 34,000  Level Fort Worth Center
Fri 05:06:18 AM 33.7033 -100.1350 284° West 435 501 34,000  Level Fort Worth Center
Fri 05:07:18 AM 33.7336 -100.2783 287° West 435 501 34,000  Level Fort Worth Center
Fri 05:08:18 AM 33.7681 -100.4142 285° West 435 501 34,000  Level Fort Worth Center
Fri 05:09:18 AM 33.7981 -100.5478 286° West 430 495 34,000  Level Fort Worth Center
Fri 05:10:18 AM 33.8300 -100.6839 281° West 425 489 34,000  Level Fort Worth Center
Fri 05:11:18 AM 33.8533 -100.8247 288° West 420 483 34,000  Level Fort Worth Center
Fri 05:12:18 AM 33.8894 -100.9564 285° West 420 483 34,000  Level Fort Worth Center
Fri 05:13:18 AM 33.9228 -101.1053 285° West 420 483 34,000  Level Fort Worth Center
Fri 05:14:18 AM 33.9503 -101.2292 285° West 426 490 34,000  Level Fort Worth Center
Fri 05:15:18 AM 33.9831 -101.3786 286° West 421 484 34,000  Level Fort Worth Center
Fri 05:16:18 AM 34.0125 -101.5025 284° West 421 484 34,000  Level Fort Worth Center
Fri 05:18:54 AM 34.0903 -101.8769 284° West 423 487 34,000  Level Albuquerque Center
Fri 05:19:54 AM 34.1192 -102.0131 287° West 428 493 34,000  Level Albuquerque Center
Fri 05:20:54 AM 34.1497 -102.1364 283° West 440 506 34,000  Level Albuquerque Center
Fri 05:21:54 AM 34.1767 -102.2753 284° West 425 489 34,000  Level Albuquerque Center
Fri 05:22:54 AM 34.2053 -102.4117 283° West 425 489 34,000  Level Albuquerque Center
Fri 05:23:54 AM 34.2342 -102.5581 285° West 425 489 34,000 50 Level Albuquerque Center
Fri 05:24:54 AM 34.2647 -102.6972 284° West 425 489 34,100 50 Climbing Albuquerque Center
Fri 05:25:54 AM 34.2953 -102.8411 283° West 432 497 34,100 -50 Level Albuquerque Center
Fri 05:26:54 AM 34.3214 -102.9831 285° West 439 505 34,000 -50 Descending Albuquerque Center
Fri 05:27:54 AM 34.3536 -103.1272 284° West 444 511 34,000  Level Albuquerque Center
Fri 05:28:54 AM 34.3839 -103.2717 283° West 444 511 34,000  Level Albuquerque Center
Fri 05:29:54 AM 34.4117 -103.4189 284° West 454 522 34,000  Level Albuquerque Center
Fri 05:30:54 AM 34.4414 -103.5661 284° West 449 517 34,000  Level Albuquerque Center
Fri 05:31:54 AM 34.4711 -103.7133 283° West 449 517 34,000  Level Albuquerque Center
Fri 05:32:54 AM 34.5006 -103.8658 284° West 454 522 34,000 50 Level Albuquerque Center
Fri 05:33:54 AM 34.5300 -104.0133 284° West 454 522 34,100 50 Climbing Albuquerque Center
Fri 05:34:54 AM 34.5586 -104.1508 282° West 459 528 34,100 -50 Level Albuquerque Center
Fri 05:35:54 AM 34.5856 -104.3036 284° West 464 534 34,000 -50 Descending Albuquerque Center
Fri 05:36:54 AM 34.6167 -104.4564 283° West 469 540 34,000  Level Albuquerque Center
Fri 05:37:54 AM 34.6475 -104.6144 282° West 469 540 34,000  Level Albuquerque Center
Fri 05:38:54 AM 34.6739 -104.7675 283° West 469 540 34,000  Level Albuquerque Center
Fri 05:39:54 AM 34.7067 -104.9383 282° West 469 540 34,000  Level Albuquerque Center
Fri 05:40:54 AM 34.7347 -105.0942 283° West 469 540 34,000  Level Albuquerque Center
Fri 05:41:54 AM 34.7647 -105.2500 282° West 469 540 34,000  Level Albuquerque Center
Fri 05:42:54 AM 34.7922 -105.4061 284° West 469 540 34,000  Level Albuquerque Center
Fri 05:43:54 AM 34.8239 -105.5622 283° West 469 540 34,000  Level Albuquerque Center
Fri 05:44:54 AM 34.8533 -105.7211 283° West 474 545 34,000  Level Albuquerque Center
Fri 05:45:54 AM 34.8825 -105.8800 282° West 479 551 34,000  Level Albuquerque Center
Fri 05:46:54 AM 34.9094 -106.0392 281° West 484 557 34,000  Level Albuquerque Center
Fri 05:47:54 AM 34.9317 -106.1781 284° West 484 557 34,000  Level Albuquerque Center
Fri 05:48:54 AM 34.9644 -106.3372 280° West 484 557 34,000 50 Level Albuquerque Center
Fri 05:49:54 AM 34.9889 -106.4992 282° West 489 563 34,100 50 Climbing Albuquerque Center
Fri 05:50:54 AM 35.0192 -106.6764 280° West 489 563 34,100 -50 Level Albuquerque Center
Fri 05:51:54 AM 35.0386 -106.8183 268° West 484 557 34,000 -50 Descending Albuquerque Center
Fri 05:52:54 AM 35.0331 -106.9781 265° West 478 550 34,000  Level Albuquerque Center
Fri 05:53:54 AM 35.0208 -107.1608 265° West 485 558 34,000  Level Albuquerque Center
Fri 05:54:54 AM 35.0086 -107.3256 264° West 491 565 34,000 50 Level Albuquerque Center
Fri 05:55:54 AM 34.9961 -107.4728 266° West 491 565 34,100 50 Climbing Albuquerque Center
Fri 05:56:54 AM 34.9875 -107.6350 265° West 491 565 34,100 -50 Level Albuquerque Center
Fri 05:57:54 AM 34.9744 -107.8175 265° West 496 571 34,000 -50 Descending Albuquerque Center
Fri 05:58:54 AM 34.9631 -107.9847 263° West 501 577 34,000  Level Albuquerque Center
Fri 05:59:54 AM 34.9475 -108.1492 265° West 496 571 34,000  Level Albuquerque Center
Fri 06:00:54 AM 34.9358 -108.3086 267° West 496 571 34,000  Level Albuquerque Center
Fri 06:01:54 AM 34.9283 -108.4783 263° West 496 571 34,000  Level Albuquerque Center
Fri 06:02:54 AM 34.9119 -108.6453 265° West 501 577 34,000  Level Albuquerque Center
Fri 06:03:54 AM 34.9022 -108.7769 263° West 501 577 34,000 50 Level Albuquerque Center
Fri 06:04:54 AM 34.8831 -108.9614 264° West 501 577 34,100  Climbing Albuquerque Center
Fri 06:05:54 AM 34.8681 -109.1433 264° West 501 577 34,000 -50 Descending Albuquerque Center
Fri 06:06:54 AM 34.8528 -109.3100 265° West 501 577 34,000  Level Albuquerque Center
Fri 06:07:54 AM 34.8397 -109.4767 264° West 501 577 34,000  Level Albuquerque Center
Fri 06:08:54 AM 34.8264 -109.6308 263° West 507 583 34,000  Level Albuquerque Center
Fri 06:09:54 AM 34.8106 -109.7947 265° West 501 577 34,000  Level Albuquerque Center
Fri 06:10:54 AM 34.7961 -109.9814 262° West 501 577 34,000  Level Albuquerque Center
Fri 06:11:54 AM 34.7778 -110.1478 264° West 501 577 34,000  Level Albuquerque Center
Fri 06:12:54 AM 34.7639 -110.2989 264° West 501 577 34,000  Level Albuquerque Center
Fri 06:13:54 AM 34.7492 -110.4703 263° West 501 577 34,000  Level Albuquerque Center
Fri 06:14:54 AM 34.7294 -110.6567 263° West 506 582 34,000  Level Albuquerque Center
Fri 06:15:54 AM 34.7147 -110.8128 264° West 504 580 34,000  Level Albuquerque Center
Fri 06:16:54 AM 34.6992 -110.9814 263° West 511 588 34,000  Level Albuquerque Center
Fri 06:17:54 AM 34.6811 -111.1622 261° West 511 588 34,000  Level Albuquerque Center
Fri 06:18:54 AM 34.6589 -111.3356 263° West 511 588 34,000  Level Albuquerque Center
Fri 06:19:54 AM 34.6428 -111.4989 262° West 511 588 34,000  Level Albuquerque Center
Fri 06:20:54 AM 34.6219 -111.6719 263° West 516 594 34,000 50 Level Albuquerque Center
Fri 06:21:54 AM 34.6031 -111.8475 262° West 526 605 34,100  Climbing Albuquerque Center
Fri 06:22:54 AM 34.5839 -112.0231 262° West 526 605 34,000 -50 Descending Albuquerque Center
Fri 06:23:54 AM 34.5644 -112.1986 262° West 531 611 34,000  Level Albuquerque Center
Fri 06:24:54 AM 34.5444 -112.3789 262° West 537 618 34,000 50 Level Albuquerque Center
Fri 06:25:54 AM 34.5244 -112.5542 263° West 537 618 34,100  Climbing Albuquerque Center
Fri 06:26:54 AM 34.5061 -112.7294 261° West 537 618 34,000 -50 Descending Albuquerque Center
Fri 06:27:54 AM 34.4836 -112.9044 262° West 537 618 34,000  Level Albuquerque Center
Fri 06:28:54 AM 34.4628 -113.0817 262° West 537 618 34,000  Level Albuquerque Center
Fri 06:29:54 AM 34.4442 -113.2517 260° West 537 618 34,000  Level Albuquerque Center
Fri 06:30:54 AM 34.4214 -113.4139 261° West 537 618 34,000  Level Albuquerque Center
Fri 06:31:54 AM 34.4000 -113.5858 260° West 537 618 34,000  Level Albuquerque Center
Fri 06:32:54 AM 34.3764 -113.7553 262° West 532 612 34,000  Level Albuquerque Center
Fri 06:33:54 AM 34.3569 -113.9222 261° West 520 598 34,000  Level Albuquerque Center
Fri 06:44:09 AM 34.1286 -115.6619 263° West 466 536 34,000  Level Los Angeles Center
Fri 06:45:09 AM 34.1103 -115.8353 263° West 498 573 34,000 -100 Level Los Angeles Center
Fri 06:46:09 AM 34.0919 -116.0058 263° West 518 596 33,800 -1,100 Descending Los Angeles Center
Fri 06:47:09 AM 34.0731 -116.1789 261° West 523 602 31,800 -2,150 Descending Los Angeles Center
Fri 06:48:09 AM 34.0519 -116.3419 261° West 518 596 29,500 -2,450 Descending Los Angeles Center
Fri 06:49:09 AM 34.0308 -116.5097 262° West 518 596 26,900 -2,700 Descending Los Angeles Center
Fri 06:50:09 AM 34.0092 -116.6900 262° West 506 582 24,100 -2,700 Descending Los Angeles Center
Fri 06:51:09 AM 33.9917 -116.8428 262° West 484 557 21,500 -2,543 Descending Los Angeles Center
Fri 06:51:41 AM 33.9833 -116.9167 262° West 456 525 20,200 -2,478 Descending Southern California TRACON
Fri 06:52:41 AM 33.9667 -117.0667 262° West 444 511 17,700 -1,952 Descending Southern California TRACON
Fri 06:53:47 AM 33.9500 -117.2167 261° West 424 488 16,100 -1,190 Descending Southern California TRACON
Fri 06:54:47 AM 33.9333 -117.3500 261° West 382 440 15,200 -850 Descending Southern California TRACON
Fri 06:55:47 AM 33.9167 -117.4833 280° West 376 433 14,400 -800 Descending Southern California TRACON
Fri 06:56:47 AM 33.9333 -117.6000 279° West 367 422 13,600 -750 Descending Southern California TRACON
Fri 06:57:47 AM 33.9500 -117.7333 281° West 365 420 12,900 -737 Descending Southern California TRACON
Fri 06:58:41 AM 33.9667 -117.8333 280° West 367 422 12,200 -730 Descending Southern California TRACON
Fri 06:59:42 AM 33.9833 -117.9500 270° West 350 403 11,500 -730 Descending Southern California TRACON
Fri 07:00:36 AM 33.9833 -118.0500 270° West 322 371 10,800 -895 Descending Southern California TRACON
Fri 07:01:36 AM 33.9833 -118.1500 281° West 306 352 9,800 -1,000 Descending Southern California TRACON
Fri 07:02:36 AM 34.0000 -118.2500 270° West 297 342 8,800 -900 Descending Southern California TRACON
Fri 07:03:36 AM 34.0000 -118.3500 277° West 289 333 8,000 -516 Descending Southern California TRACON
Fri 07:04:09 AM 34.0058 -118.4064 272° West 303 349 8,000 -903 Level Los Angeles Center
Fri 07:05:09 AM 34.0081 -118.5042 265° West 298 343 6,600 -2,150 Descending Los Angeles Center
Fri 07:06:09 AM 34.0022 -118.5844 198° South 268 308 3,700 -2,400 Descending Los Angeles Center
Fri 07:07:09 AM 33.9497 -118.6053 117° Southeast 193 222 1,800 -950 Descending Los Angeles Center
Fri 07:08:09 AM 33.9236 -118.5444 83° East 121 139 1,800 -250 Level Los Angeles Center
Fri 07:09:09 AM 33.9292 -118.4869 89° East 146 168 1,300 -600 Descending Los Angeles Center
Fri 07:10:09 AM 33.9300 -118.4444 89° East 154 177 600 -700 Descending Los Angeles Center

Login

Don't have an account? Register now (free) for customized features, flight alerts, and more!